sensor_id;sensor_type;location;lat;lon;timestamp;P1;durP1;ratioP1;P2;durP2;ratioP2
52868;SDS011;39100;53.480;6.158;2022-12-18T00:01:01;35.63;;;16.73;;
52868;SDS011;39100;53.480;6.158;2022-12-18T00:03:31;43.17;;;16.25;;
52868;SDS011;39100;53.480;6.158;2022-12-18T00:06:01;39.45;;;15.30;;
52868;SDS011;39100;53.480;6.158;2022-12-18T00:08:26;46.33;;;17.38;;
52868;SDS011;39100;53.480;6.158;2022-12-18T00:10:52;43.03;;;17.15;;
52868;SDS011;39100;53.480;6.158;2022-12-18T00:13:18;40.88;;;16.02;;
52868;SDS011;39100;53.480;6.158;2022-12-18T00:15:44;45.30;;;15.43;;
52868;SDS011;39100;53.480;6.158;2022-12-18T00:18:09;36.35;;;14.05;;
52868;SDS011;39100;53.480;6.158;2022-12-18T00:20:36;42.10;;;16.83;;
52868;SDS011;39100;53.480;6.158;2022-12-18T00:23:05;42.80;;;15.88;;
52868;SDS011;39100;53.480;6.158;2022-12-18T00:25:34;44.58;;;16.77;;
52868;SDS011;39100;53.480;6.158;2022-12-18T00:28:01;35.22;;;15.88;;
52868;SDS011;39100;53.480;6.158;2022-12-18T00:30:27;43.72;;;16.10;;
52868;SDS011;39100;53.480;6.158;2022-12-18T00:32:53;42.92;;;15.50;;
52868;SDS011;39100;53.480;6.158;2022-12-18T00:35:18;38.67;;;15.93;;
52868;SDS011;39100;53.480;6.158;2022-12-18T00:37:44;39.45;;;16.38;;
52868;SDS011;39100;53.480;6.158;2022-12-18T00:40:09;40.47;;;15.38;;
52868;SDS011;39100;53.480;6.158;2022-12-18T00:42:35;39.65;;;14.50;;
52868;SDS011;39100;53.480;6.158;2022-12-18T00:45:19;38.05;;;15.25;;
52868;SDS011;39100;53.480;6.158;2022-12-18T00:47:45;45.20;;;15.75;;
52868;SDS011;39100;53.480;6.158;2022-12-18T00:50:11;41.63;;;15.88;;
52868;SDS011;39100;53.480;6.158;2022-12-18T00:52:36;37.63;;;15.35;;
52868;SDS011;39100;53.480;6.158;2022-12-18T00:55:02;43.17;;;16.05;;
52868;SDS011;39100;53.480;6.158;2022-12-18T00:57:27;34.53;;;15.18;;
52868;SDS011;39100;53.480;6.158;2022-12-18T00:59:53;37.95;;;15.48;;
52868;SDS011;39100;53.480;6.158;2022-12-18T01:02:18;45.17;;;16.40;;
52868;SDS011;39100;53.480;6.158;2022-12-18T01:04:44;44.65;;;16.30;;
52868;SDS011;39100;53.480;6.158;2022-12-18T01:07:10;37.67;;;13.80;;
52868;SDS011;39100;53.480;6.158;2022-12-18T01:09:35;37.78;;;14.63;;
52868;SDS011;39100;53.480;6.158;2022-12-18T01:12:01;38.92;;;14.77;;
52868;SDS011;39100;53.480;6.158;2022-12-18T01:14:26;38.75;;;14.65;;
52868;SDS011;39100;53.480;6.158;2022-12-18T01:16:52;40.53;;;15.93;;
52868;SDS011;39100;53.480;6.158;2022-12-18T01:19:17;40.20;;;15.27;;
52868;SDS011;39100;53.480;6.158;2022-12-18T01:21:43;35.85;;;14.70;;
52868;SDS011;39100;53.480;6.158;2022-12-18T01:24:09;44.75;;;15.00;;
52868;SDS011;39100;53.480;6.158;2022-12-18T01:26:37;39.58;;;15.68;;
52868;SDS011;39100;53.480;6.158;2022-12-18T01:29:02;35.65;;;15.93;;
52868;SDS011;39100;53.480;6.158;2022-12-18T01:31:29;41.15;;;15.75;;
52868;SDS011;39100;53.480;6.158;2022-12-18T01:33:56;39.33;;;15.85;;
52868;SDS011;39100;53.480;6.158;2022-12-18T01:36:24;41.17;;;15.68;;
52868;SDS011;39100;53.480;6.158;2022-12-18T01:38:51;39.08;;;16.40;;
52868;SDS011;39100;53.480;6.158;2022-12-18T01:41:19;39.33;;;16.25;;
52868;SDS011;39100;53.480;6.158;2022-12-18T01:43:53;43.75;;;16.05;;
52868;SDS011;39100;53.480;6.158;2022-12-18T01:46:22;41.78;;;15.35;;
52868;SDS011;39100;53.480;6.158;2022-12-18T01:48:49;44.88;;;17.17;;
52868;SDS011;39100;53.480;6.158;2022-12-18T01:51:18;45.70;;;16.80;;
52868;SDS011;39100;53.480;6.158;2022-12-18T01:53:44;35.72;;;15.32;;
52868;SDS011;39100;53.480;6.158;2022-12-18T01:56:18;43.28;;;17.00;;
52868;SDS011;39100;53.480;6.158;2022-12-18T01:59:00;39.10;;;15.88;;
52868;SDS011;39100;53.480;6.158;2022-12-18T02:01:30;38.35;;;14.88;;
52868;SDS011;39100;53.480;6.158;2022-12-18T02:04:14;40.65;;;16.10;;
52868;SDS011;39100;53.480;6.158;2022-12-18T02:06:46;42.45;;;15.88;;
52868;SDS011;39100;53.480;6.158;2022-12-18T02:09:20;42.85;;;16.30;;
52868;SDS011;39100;53.480;6.158;2022-12-18T02:11:59;41.28;;;15.85;;
52868;SDS011;39100;53.480;6.158;2022-12-18T02:14:38;40.83;;;15.02;;
52868;SDS011;39100;53.480;6.158;2022-12-18T02:17:16;38.97;;;15.57;;
52868;SDS011;39100;53.480;6.158;2022-12-18T02:22:23;45.08;;;16.70;;
52868;SDS011;39100;53.480;6.158;2022-12-18T02:25:05;37.05;;;13.88;;
52868;SDS011;39100;53.480;6.158;2022-12-18T02:27:32;36.07;;;14.20;;
52868;SDS011;39100;53.480;6.158;2022-12-18T02:30:00;37.78;;;15.05;;
52868;SDS011;39100;53.480;6.158;2022-12-18T02:32:30;43.42;;;15.25;;
52868;SDS011;39100;53.480;6.158;2022-12-18T02:34:57;39.75;;;14.77;;
52868;SDS011;39100;53.480;6.158;2022-12-18T02:37:24;41.30;;;14.32;;
52868;SDS011;39100;53.480;6.158;2022-12-18T02:39:53;37.35;;;13.63;;
52868;SDS011;39100;53.480;6.158;2022-12-18T02:42:21;41.95;;;15.38;;
52868;SDS011;39100;53.480;6.158;2022-12-18T02:44:48;41.55;;;13.80;;
52868;SDS011;39100;53.480;6.158;2022-12-18T02:47:16;41.67;;;15.43;;
52868;SDS011;39100;53.480;6.158;2022-12-18T02:52:29;38.95;;;15.73;;
52868;SDS011;39100;53.480;6.158;2022-12-18T02:57:46;36.70;;;13.77;;
52868;SDS011;39100;53.480;6.158;2022-12-18T03:00:29;37.67;;;13.50;;
52868;SDS011;39100;53.480;6.158;2022-12-18T03:03:19;47.13;;;15.82;;
52868;SDS011;39100;53.480;6.158;2022-12-18T03:05:59;42.20;;;15.32;;
52868;SDS011;39100;53.480;6.158;2022-12-18T03:08:35;43.05;;;15.60;;
52868;SDS011;39100;53.480;6.158;2022-12-18T03:11:05;39.17;;;13.98;;
52868;SDS011;39100;53.480;6.158;2022-12-18T03:16:02;36.83;;;13.93;;
52868;SDS011;39100;53.480;6.158;2022-12-18T03:18:35;42.20;;;16.67;;
52868;SDS011;39100;53.480;6.158;2022-12-18T03:21:11;40.22;;;14.10;;
52868;SDS011;39100;53.480;6.158;2022-12-18T03:23:42;34.95;;;13.30;;
52868;SDS011;39100;53.480;6.158;2022-12-18T03:26:12;43.95;;;13.90;;
52868;SDS011;39100;53.480;6.158;2022-12-18T03:28:42;43.47;;;16.30;;
52868;SDS011;39100;53.480;6.158;2022-12-18T03:31:12;44.22;;;16.08;;
52868;SDS011;39100;53.480;6.158;2022-12-18T03:33:47;40.65;;;13.48;;
52868;SDS011;39100;53.480;6.158;2022-12-18T03:36:17;37.42;;;13.40;;
52868;SDS011;39100;53.480;6.158;2022-12-18T03:38:43;35.53;;;13.40;;
52868;SDS011;39100;53.480;6.158;2022-12-18T03:43:59;31.13;;;12.65;;
52868;SDS011;39100;53.480;6.158;2022-12-18T03:49:01;38.45;;;14.68;;
52868;SDS011;39100;53.480;6.158;2022-12-18T03:51:44;30.77;;;13.30;;
52868;SDS011;39100;53.480;6.158;2022-12-18T03:54:28;47.25;;;15.73;;
52868;SDS011;39100;53.480;6.158;2022-12-18T03:56:57;35.45;;;14.23;;
52868;SDS011;39100;53.480;6.158;2022-12-18T03:59:27;40.85;;;14.32;;
52868;SDS011;39100;53.480;6.158;2022-12-18T04:01:54;36.35;;;13.57;;
52868;SDS011;39100;53.480;6.158;2022-12-18T04:04:22;40.72;;;14.68;;
52868;SDS011;39100;53.480;6.158;2022-12-18T04:06:50;35.90;;;12.05;;
52868;SDS011;39100;53.480;6.158;2022-12-18T04:09:17;32.78;;;12.55;;
52868;SDS011;39100;53.480;6.158;2022-12-18T04:11:45;37.50;;;14.05;;
52868;SDS011;39100;53.480;6.158;2022-12-18T04:14:11;37.88;;;13.18;;
52868;SDS011;39100;53.480;6.158;2022-12-18T04:16:37;42.08;;;15.10;;
52868;SDS011;39100;53.480;6.158;2022-12-18T04:19:03;40.63;;;14.02;;
52868;SDS011;39100;53.480;6.158;2022-12-18T04:21:29;34.45;;;13.50;;
52868;SDS011;39100;53.480;6.158;2022-12-18T04:23:54;37.17;;;13.23;;
52868;SDS011;39100;53.480;6.158;2022-12-18T04:26:20;36.15;;;13.32;;
52868;SDS011;39100;53.480;6.158;2022-12-18T04:28:45;35.42;;;13.65;;
52868;SDS011;39100;53.480;6.158;2022-12-18T04:31:11;35.15;;;13.43;;
52868;SDS011;39100;53.480;6.158;2022-12-18T04:33:37;39.08;;;13.85;;
52868;SDS011;39100;53.480;6.158;2022-12-18T04:36:03;39.30;;;14.15;;
52868;SDS011;39100;53.480;6.158;2022-12-18T04:38:29;38.60;;;14.50;;
52868;SDS011;39100;53.480;6.158;2022-12-18T04:40:54;38.92;;;12.68;;
52868;SDS011;39100;53.480;6.158;2022-12-18T04:43:20;41.50;;;15.43;;
52868;SDS011;39100;53.480;6.158;2022-12-18T04:45:45;32.65;;;12.73;;
52868;SDS011;39100;53.480;6.158;2022-12-18T04:48:11;41.50;;;15.20;;
52868;SDS011;39100;53.480;6.158;2022-12-18T04:50:36;33.97;;;13.10;;
52868;SDS011;39100;53.480;6.158;2022-12-18T04:53:02;33.13;;;12.88;;
52868;SDS011;39100;53.480;6.158;2022-12-18T04:55:28;39.03;;;13.90;;
52868;SDS011;39100;53.480;6.158;2022-12-18T04:57:54;37.78;;;13.50;;
52868;SDS011;39100;53.480;6.158;2022-12-18T05:00:19;38.80;;;14.23;;
52868;SDS011;39100;53.480;6.158;2022-12-18T05:02:45;32.10;;;12.55;;
52868;SDS011;39100;53.480;6.158;2022-12-18T05:05:10;41.38;;;14.43;;
52868;SDS011;39100;53.480;6.158;2022-12-18T05:07:36;37.00;;;13.43;;
52868;SDS011;39100;53.480;6.158;2022-12-18T05:10:02;36.30;;;13.43;;
52868;SDS011;39100;53.480;6.158;2022-12-18T05:12:28;36.90;;;14.45;;
52868;SDS011;39100;53.480;6.158;2022-12-18T05:14:55;39.33;;;13.15;;
52868;SDS011;39100;53.480;6.158;2022-12-18T05:17:21;43.00;;;15.75;;
52868;SDS011;39100;53.480;6.158;2022-12-18T05:19:46;39.65;;;15.40;;
52868;SDS011;39100;53.480;6.158;2022-12-18T05:22:12;41.45;;;15.00;;
52868;SDS011;39100;53.480;6.158;2022-12-18T05:24:37;39.38;;;16.20;;
52868;SDS011;39100;53.480;6.158;2022-12-18T05:27:03;35.85;;;13.90;;
52868;SDS011;39100;53.480;6.158;2022-12-18T05:29:28;33.60;;;13.13;;
52868;SDS011;39100;53.480;6.158;2022-12-18T05:31:54;40.35;;;14.38;;
52868;SDS011;39100;53.480;6.158;2022-12-18T05:34:20;37.58;;;14.27;;
52868;SDS011;39100;53.480;6.158;2022-12-18T05:36:45;37.78;;;13.60;;
52868;SDS011;39100;53.480;6.158;2022-12-18T05:39:11;34.85;;;13.73;;
52868;SDS011;39100;53.480;6.158;2022-12-18T05:41:37;31.63;;;11.75;;
52868;SDS011;39100;53.480;6.158;2022-12-18T05:44:02;34.05;;;12.85;;
52868;SDS011;39100;53.480;6.158;2022-12-18T05:46:28;35.65;;;12.63;;
52868;SDS011;39100;53.480;6.158;2022-12-18T05:48:54;37.90;;;14.15;;
52868;SDS011;39100;53.480;6.158;2022-12-18T05:51:21;34.88;;;13.80;;
52868;SDS011;39100;53.480;6.158;2022-12-18T05:53:47;38.42;;;13.82;;
52868;SDS011;39100;53.480;6.158;2022-12-18T05:56:17;39.47;;;14.30;;
52868;SDS011;39100;53.480;6.158;2022-12-18T05:58:46;44.67;;;14.05;;
52868;SDS011;39100;53.480;6.158;2022-12-18T06:01:14;36.75;;;13.27;;
52868;SDS011;39100;53.480;6.158;2022-12-18T06:03:42;30.63;;;11.75;;
52868;SDS011;39100;53.480;6.158;2022-12-18T06:06:18;35.10;;;13.65;;
52868;SDS011;39100;53.480;6.158;2022-12-18T06:08:48;29.20;;;11.43;;
52868;SDS011;39100;53.480;6.158;2022-12-18T06:11:22;32.78;;;13.15;;
52868;SDS011;39100;53.480;6.158;2022-12-18T06:13:50;29.27;;;12.02;;
52868;SDS011;39100;53.480;6.158;2022-12-18T06:16:17;27.33;;;11.63;;
52868;SDS011;39100;53.480;6.158;2022-12-18T06:18:43;32.22;;;12.35;;
52868;SDS011;39100;53.480;6.158;2022-12-18T06:21:08;36.30;;;12.43;;
52868;SDS011;39100;53.480;6.158;2022-12-18T06:23:34;35.63;;;13.88;;
52868;SDS011;39100;53.480;6.158;2022-12-18T06:26:07;31.77;;;12.05;;
52868;SDS011;39100;53.480;6.158;2022-12-18T06:28:34;28.13;;;12.10;;
52868;SDS011;39100;53.480;6.158;2022-12-18T06:30:59;34.67;;;13.85;;
52868;SDS011;39100;53.480;6.158;2022-12-18T06:33:26;25.35;;;11.40;;
52868;SDS011;39100;53.480;6.158;2022-12-18T06:35:53;34.95;;;13.10;;
52868;SDS011;39100;53.480;6.158;2022-12-18T06:38:19;29.85;;;12.13;;
52868;SDS011;39100;53.480;6.158;2022-12-18T06:40:44;27.88;;;11.40;;
52868;SDS011;39100;53.480;6.158;2022-12-18T06:43:10;27.73;;;11.90;;
52868;SDS011;39100;53.480;6.158;2022-12-18T06:45:35;26.73;;;11.88;;
52868;SDS011;39100;53.480;6.158;2022-12-18T06:48:01;30.00;;;11.68;;
52868;SDS011;39100;53.480;6.158;2022-12-18T06:50:27;25.42;;;10.07;;
52868;SDS011;39100;53.480;6.158;2022-12-18T06:52:53;26.67;;;10.45;;
52868;SDS011;39100;53.480;6.158;2022-12-18T06:55:18;29.70;;;11.07;;
52868;SDS011;39100;53.480;6.158;2022-12-18T06:57:44;27.02;;;9.40;;
52868;SDS011;39100;53.480;6.158;2022-12-18T07:00:10;25.33;;;9.80;;
52868;SDS011;39100;53.480;6.158;2022-12-18T07:02:35;29.90;;;10.05;;
52868;SDS011;39100;53.480;6.158;2022-12-18T07:05:01;25.98;;;10.80;;
52868;SDS011;39100;53.480;6.158;2022-12-18T07:07:27;24.25;;;10.45;;
52868;SDS011;39100;53.480;6.158;2022-12-18T07:09:53;29.40;;;11.40;;
52868;SDS011;39100;53.480;6.158;2022-12-18T07:12:19;32.25;;;11.10;;
52868;SDS011;39100;53.480;6.158;2022-12-18T07:14:44;24.73;;;10.55;;
52868;SDS011;39100;53.480;6.158;2022-12-18T07:17:10;30.13;;;11.20;;
52868;SDS011;39100;53.480;6.158;2022-12-18T07:19:35;27.85;;;10.82;;
52868;SDS011;39100;53.480;6.158;2022-12-18T07:22:01;30.58;;;11.10;;
52868;SDS011;39100;53.480;6.158;2022-12-18T07:24:27;29.80;;;11.23;;
52868;SDS011;39100;53.480;6.158;2022-12-18T07:26:53;22.42;;;10.55;;
52868;SDS011;39100;53.480;6.158;2022-12-18T07:29:19;24.13;;;10.32;;
52868;SDS011;39100;53.480;6.158;2022-12-18T07:31:44;25.08;;;9.93;;
52868;SDS011;39100;53.480;6.158;2022-12-18T07:34:11;21.25;;;9.40;;
52868;SDS011;39100;53.480;6.158;2022-12-18T07:36:37;24.25;;;10.13;;
52868;SDS011;39100;53.480;6.158;2022-12-18T07:39:03;29.98;;;9.98;;
52868;SDS011;39100;53.480;6.158;2022-12-18T07:41:29;21.35;;;9.02;;
52868;SDS011;39100;53.480;6.158;2022-12-18T07:43:54;21.50;;;8.80;;
52868;SDS011;39100;53.480;6.158;2022-12-18T07:46:20;28.40;;;10.23;;
52868;SDS011;39100;53.480;6.158;2022-12-18T07:48:46;27.90;;;11.13;;
52868;SDS011;39100;53.480;6.158;2022-12-18T07:51:11;26.92;;;10.13;;
52868;SDS011;39100;53.480;6.158;2022-12-18T07:53:37;22.27;;;8.85;;
52868;SDS011;39100;53.480;6.158;2022-12-18T07:56:04;20.13;;;8.18;;
52868;SDS011;39100;53.480;6.158;2022-12-18T07:58:32;25.00;;;9.23;;
52868;SDS011;39100;53.480;6.158;2022-12-18T08:03:33;24.50;;;9.18;;
52868;SDS011;39100;53.480;6.158;2022-12-18T08:06:03;28.52;;;10.23;;
52868;SDS011;39100;53.480;6.158;2022-12-18T08:08:31;24.90;;;10.07;;
52868;SDS011;39100;53.480;6.158;2022-12-18T08:10:58;27.45;;;10.35;;
52868;SDS011;39100;53.480;6.158;2022-12-18T08:13:24;27.08;;;9.43;;
52868;SDS011;39100;53.480;6.158;2022-12-18T08:16:00;21.63;;;8.43;;
52868;SDS011;39100;53.480;6.158;2022-12-18T08:18:27;23.25;;;9.30;;
52868;SDS011;39100;53.480;6.158;2022-12-18T08:20:53;21.90;;;9.10;;
52868;SDS011;39100;53.480;6.158;2022-12-18T08:23:19;20.02;;;8.25;;
52868;SDS011;39100;53.480;6.158;2022-12-18T08:25:45;24.00;;;8.82;;
52868;SDS011;39100;53.480;6.158;2022-12-18T08:28:11;22.02;;;8.85;;
52868;SDS011;39100;53.480;6.158;2022-12-18T08:30:36;20.60;;;8.02;;
52868;SDS011;39100;53.480;6.158;2022-12-18T08:33:02;23.40;;;9.57;;
52868;SDS011;39100;53.480;6.158;2022-12-18T08:35:27;22.80;;;8.68;;
52868;SDS011;39100;53.480;6.158;2022-12-18T08:37:53;23.55;;;9.18;;
52868;SDS011;39100;53.480;6.158;2022-12-18T08:40:19;27.58;;;10.60;;
52868;SDS011;39100;53.480;6.158;2022-12-18T08:42:44;18.30;;;9.20;;
52868;SDS011;39100;53.480;6.158;2022-12-18T08:45:29;21.65;;;8.82;;
52868;SDS011;39100;53.480;6.158;2022-12-18T08:47:54;20.27;;;8.93;;
52868;SDS011;39100;53.480;6.158;2022-12-18T08:50:20;26.30;;;9.70;;
52868;SDS011;39100;53.480;6.158;2022-12-18T08:52:46;19.00;;;9.05;;
52868;SDS011;39100;53.480;6.158;2022-12-18T08:55:11;23.30;;;9.55;;
52868;SDS011;39100;53.480;6.158;2022-12-18T08:57:37;21.50;;;9.43;;
52868;SDS011;39100;53.480;6.158;2022-12-18T09:00:03;22.33;;;9.57;;
52868;SDS011;39100;53.480;6.158;2022-12-18T09:02:29;21.33;;;8.48;;
52868;SDS011;39100;53.480;6.158;2022-12-18T09:04:54;25.15;;;9.13;;
52868;SDS011;39100;53.480;6.158;2022-12-18T09:07:20;19.50;;;9.40;;
52868;SDS011;39100;53.480;6.158;2022-12-18T09:09:46;16.85;;;7.80;;
52868;SDS011;39100;53.480;6.158;2022-12-18T09:12:11;19.52;;;7.72;;
52868;SDS011;39100;53.480;6.158;2022-12-18T09:14:37;23.55;;;9.85;;
52868;SDS011;39100;53.480;6.158;2022-12-18T09:17:02;22.88;;;9.88;;
52868;SDS011;39100;53.480;6.158;2022-12-18T09:19:28;19.73;;;9.10;;
52868;SDS011;39100;53.480;6.158;2022-12-18T09:21:54;19.10;;;8.23;;
52868;SDS011;39100;53.480;6.158;2022-12-18T09:24:19;20.50;;;8.50;;
52868;SDS011;39100;53.480;6.158;2022-12-18T09:26:47;25.50;;;9.93;;
52868;SDS011;39100;53.480;6.158;2022-12-18T09:29:14;23.88;;;9.70;;
52868;SDS011;39100;53.480;6.158;2022-12-18T09:31:40;17.48;;;8.48;;
52868;SDS011;39100;53.480;6.158;2022-12-18T09:34:06;18.20;;;8.45;;
52868;SDS011;39100;53.480;6.158;2022-12-18T09:36:32;21.77;;;8.90;;
52868;SDS011;39100;53.480;6.158;2022-12-18T09:38:58;17.30;;;8.73;;
52868;SDS011;39100;53.480;6.158;2022-12-18T09:41:32;18.27;;;8.23;;
52868;SDS011;39100;53.480;6.158;2022-12-18T09:49:35;21.27;;;9.45;;
52868;SDS011;39100;53.480;6.158;2022-12-18T09:52:14;20.95;;;8.48;;
52868;SDS011;39100;53.480;6.158;2022-12-18T09:54:52;18.63;;;8.27;;
52868;SDS011;39100;53.480;6.158;2022-12-18T09:57:22;15.20;;;7.07;;
52868;SDS011;39100;53.480;6.158;2022-12-18T09:59:59;18.52;;;7.93;;
52868;SDS011;39100;53.480;6.158;2022-12-18T10:02:31;15.73;;;7.15;;
52868;SDS011;39100;53.480;6.158;2022-12-18T10:05:09;18.00;;;8.55;;
52868;SDS011;39100;53.480;6.158;2022-12-18T10:10:43;18.08;;;7.97;;
52868;SDS011;39100;53.480;6.158;2022-12-18T10:13:19;21.05;;;8.68;;
52868;SDS011;39100;53.480;6.158;2022-12-18T10:15:51;15.18;;;7.82;;
52868;SDS011;39100;53.480;6.158;2022-12-18T10:21:19;16.20;;;7.75;;
52868;SDS011;39100;53.480;6.158;2022-12-18T10:23:51;16.33;;;8.52;;
52868;SDS011;39100;53.480;6.158;2022-12-18T10:26:27;17.92;;;8.10;;
52868;SDS011;39100;53.480;6.158;2022-12-18T10:28:53;14.80;;;8.50;;
52868;SDS011;39100;53.480;6.158;2022-12-18T10:31:22;18.70;;;8.63;;
52868;SDS011;39100;53.480;6.158;2022-12-18T10:33:49;16.63;;;8.25;;
52868;SDS011;39100;53.480;6.158;2022-12-18T10:36:15;17.27;;;9.07;;
52868;SDS011;39100;53.480;6.158;2022-12-18T10:38:41;15.23;;;7.15;;
52868;SDS011;39100;53.480;6.158;2022-12-18T10:44:10;15.60;;;7.22;;
52868;SDS011;39100;53.480;6.158;2022-12-18T10:46:35;19.35;;;8.18;;
52868;SDS011;39100;53.480;6.158;2022-12-18T10:49:01;12.45;;;7.85;;
52868;SDS011;39100;53.480;6.158;2022-12-18T10:51:31;14.00;;;7.10;;
52868;SDS011;39100;53.480;6.158;2022-12-18T10:54:03;11.18;;;5.43;;
52868;SDS011;39100;53.480;6.158;2022-12-18T10:56:31;14.95;;;7.78;;
52868;SDS011;39100;53.480;6.158;2022-12-18T11:01:26;16.10;;;8.30;;
52868;SDS011;39100;53.480;6.158;2022-12-18T11:06:19;14.25;;;6.47;;
52868;SDS011;39100;53.480;6.158;2022-12-18T11:08:59;12.68;;;6.70;;
52868;SDS011;39100;53.480;6.158;2022-12-18T11:11:26;17.00;;;7.13;;
52868;SDS011;39100;53.480;6.158;2022-12-18T11:16:29;15.80;;;6.57;;
52868;SDS011;39100;53.480;6.158;2022-12-18T11:19:43;10.00;;;5.35;;
52868;SDS011;39100;53.480;6.158;2022-12-18T11:21:47;12.82;;;6.88;;
52868;SDS011;39100;53.480;6.158;2022-12-18T11:24:49;13.82;;;6.75;;
52868;SDS011;39100;53.480;6.158;2022-12-18T11:27:05;12.60;;;6.47;;
52868;SDS011;39100;53.480;6.158;2022-12-18T11:29:40;13.65;;;6.97;;
52868;SDS011;39100;53.480;6.158;2022-12-18T11:32:19;11.63;;;5.70;;
52868;SDS011;39100;53.480;6.158;2022-12-18T11:34:46;9.60;;;5.32;;
52868;SDS011;39100;53.480;6.158;2022-12-18T11:37:16;9.50;;;4.85;;
52868;SDS011;39100;53.480;6.158;2022-12-18T11:39:58;8.45;;;4.40;;
52868;SDS011;39100;53.480;6.158;2022-12-18T11:42:39;12.45;;;5.57;;
52868;SDS011;39100;53.480;6.158;2022-12-18T11:48:04;10.35;;;6.43;;
52868;SDS011;39100;53.480;6.158;2022-12-18T11:50:48;9.40;;;5.60;;
52868;SDS011;39100;53.480;6.158;2022-12-18T11:53:16;13.77;;;6.28;;
52868;SDS011;39100;53.480;6.158;2022-12-18T11:55:51;10.57;;;5.80;;
52868;SDS011;39100;53.480;6.158;2022-12-18T12:15:24;11.77;;;5.10;;
52868;SDS011;39100;53.480;6.158;2022-12-18T12:23:03;9.23;;;4.32;;
52868;SDS011;39100;53.480;6.158;2022-12-18T12:38:50;8.20;;;4.13;;
52868;SDS011;39100;53.480;6.158;2022-12-18T12:41:20;8.15;;;3.60;;
52868;SDS011;39100;53.480;6.158;2022-12-18T12:44:11;8.07;;;3.60;;
52868;SDS011;39100;53.480;6.158;2022-12-18T12:46:41;5.78;;;3.50;;
52868;SDS011;39100;53.480;6.158;2022-12-18T12:49:12;7.57;;;3.70;;
52868;SDS011;39100;53.480;6.158;2022-12-18T12:51:43;6.18;;;3.60;;
52868;SDS011;39100;53.480;6.158;2022-12-18T12:54:30;6.22;;;3.45;;
52868;SDS011;39100;53.480;6.158;2022-12-18T12:59:50;7.10;;;3.95;;
52868;SDS011;39100;53.480;6.158;2022-12-18T13:08:26;5.50;;;3.30;;
52868;SDS011;39100;53.480;6.158;2022-12-18T13:10:54;4.53;;;2.97;;
52868;SDS011;39100;53.480;6.158;2022-12-18T13:13:49;5.97;;;2.78;;
52868;SDS011;39100;53.480;6.158;2022-12-18T13:16:18;6.10;;;3.58;;
52868;SDS011;39100;53.480;6.158;2022-12-18T13:18:52;8.38;;;3.65;;
52868;SDS011;39100;53.480;6.158;2022-12-18T13:21:23;6.88;;;3.28;;
52868;SDS011;39100;53.480;6.158;2022-12-18T13:24:14;4.72;;;2.83;;
52868;SDS011;39100;53.480;6.158;2022-12-18T13:26:47;4.88;;;2.75;;
52868;SDS011;39100;53.480;6.158;2022-12-18T13:29:14;8.07;;;3.42;;
52868;SDS011;39100;53.480;6.158;2022-12-18T13:32:19;4.80;;;2.90;;
52868;SDS011;39100;53.480;6.158;2022-12-18T13:37:50;5.07;;;2.50;;
52868;SDS011;39100;53.480;6.158;2022-12-18T13:45:44;5.40;;;2.58;;
52868;SDS011;39100;53.480;6.158;2022-12-18T13:48:18;7.10;;;2.95;;
52868;SDS011;39100;53.480;6.158;2022-12-18T13:50:58;8.98;;;3.60;;
52868;SDS011;39100;53.480;6.158;2022-12-18T13:53:34;5.50;;;2.70;;
52868;SDS011;39100;53.480;6.158;2022-12-18T13:56:08;4.78;;;2.70;;
52868;SDS011;39100;53.480;6.158;2022-12-18T13:58:33;4.40;;;2.92;;
52868;SDS011;39100;53.480;6.158;2022-12-18T14:00:59;7.38;;;4.28;;
52868;SDS011;39100;53.480;6.158;2022-12-18T14:03:27;7.10;;;3.58;;
52868;SDS011;39100;53.480;6.158;2022-12-18T14:06:05;4.80;;;2.97;;
52868;SDS011;39100;53.480;6.158;2022-12-18T14:08:33;6.03;;;3.47;;
52868;SDS011;39100;53.480;6.158;2022-12-18T14:11:03;6.15;;;2.72;;
52868;SDS011;39100;53.480;6.158;2022-12-18T14:13:33;5.35;;;3.17;;
52868;SDS011;39100;53.480;6.158;2022-12-18T14:16:04;4.38;;;2.88;;
52868;SDS011;39100;53.480;6.158;2022-12-18T14:21:15;5.25;;;2.60;;
52868;SDS011;39100;53.480;6.158;2022-12-18T14:23:48;7.22;;;3.10;;
52868;SDS011;39100;53.480;6.158;2022-12-18T14:26:28;5.18;;;3.13;;
52868;SDS011;39100;53.480;6.158;2022-12-18T14:28:56;7.95;;;2.88;;
52868;SDS011;39100;53.480;6.158;2022-12-18T14:31:23;4.05;;;2.60;;
52868;SDS011;39100;53.480;6.158;2022-12-18T14:33:51;4.40;;;2.35;;
52868;SDS011;39100;53.480;6.158;2022-12-18T14:36:18;4.93;;;2.90;;
52868;SDS011;39100;53.480;6.158;2022-12-18T14:38:55;5.85;;;2.88;;
52868;SDS011;39100;53.480;6.158;2022-12-18T14:41:24;6.10;;;3.05;;
52868;SDS011;39100;53.480;6.158;2022-12-18T14:43:51;4.82;;;3.10;;
52868;SDS011;39100;53.480;6.158;2022-12-18T14:49:02;5.38;;;2.75;;
52868;SDS011;39100;53.480;6.158;2022-12-18T14:51:47;5.80;;;3.05;;
52868;SDS011;39100;53.480;6.158;2022-12-18T14:54:15;5.68;;;2.85;;
52868;SDS011;39100;53.480;6.158;2022-12-18T14:56:44;8.50;;;3.30;;
52868;SDS011;39100;53.480;6.158;2022-12-18T14:59:20;5.53;;;3.00;;
52868;SDS011;39100;53.480;6.158;2022-12-18T15:07:04;7.90;;;3.10;;
52868;SDS011;39100;53.480;6.158;2022-12-18T15:12:44;6.22;;;3.17;;
52868;SDS011;39100;53.480;6.158;2022-12-18T15:17:59;4.70;;;2.75;;
52868;SDS011;39100;53.480;6.158;2022-12-18T15:20:26;4.38;;;2.67;;
52868;SDS011;39100;53.480;6.158;2022-12-18T15:22:52;5.93;;;3.47;;
52868;SDS011;39100;53.480;6.158;2022-12-18T15:25:27;6.53;;;4.15;;
52868;SDS011;39100;53.480;6.158;2022-12-18T15:27:59;7.30;;;3.10;;
52868;SDS011;39100;53.480;6.158;2022-12-18T15:30:24;5.93;;;2.85;;
52868;SDS011;39100;53.480;6.158;2022-12-18T15:32:50;7.13;;;3.20;;
52868;SDS011;39100;53.480;6.158;2022-12-18T15:37:48;4.80;;;3.13;;
52868;SDS011;39100;53.480;6.158;2022-12-18T15:40:16;8.43;;;3.90;;
52868;SDS011;39100;53.480;6.158;2022-12-18T15:42:46;4.57;;;2.60;;
52868;SDS011;39100;53.480;6.158;2022-12-18T15:45:31;6.88;;;3.47;;
52868;SDS011;39100;53.480;6.158;2022-12-18T15:47:57;7.03;;;3.50;;
52868;SDS011;39100;53.480;6.158;2022-12-18T15:50:23;5.68;;;3.13;;
52868;SDS011;39100;53.480;6.158;2022-12-18T15:52:51;7.55;;;4.05;;
52868;SDS011;39100;53.480;6.158;2022-12-18T15:55:22;6.93;;;3.83;;
52868;SDS011;39100;53.480;6.158;2022-12-18T15:58:08;8.77;;;4.32;;
52868;SDS011;39100;53.480;6.158;2022-12-18T16:00:35;6.07;;;3.92;;
52868;SDS011;39100;53.480;6.158;2022-12-18T16:03:03;6.10;;;3.60;;
52868;SDS011;39100;53.480;6.158;2022-12-18T16:05:29;7.63;;;3.70;;
52868;SDS011;39100;53.480;6.158;2022-12-18T16:07:55;7.32;;;3.42;;
52868;SDS011;39100;53.480;6.158;2022-12-18T16:10:20;6.97;;;4.38;;
52868;SDS011;39100;53.480;6.158;2022-12-18T16:12:46;7.95;;;4.00;;
52868;SDS011;39100;53.480;6.158;2022-12-18T16:15:13;10.25;;;4.50;;
52868;SDS011;39100;53.480;6.158;2022-12-18T16:17:40;6.80;;;3.88;;
52868;SDS011;39100;53.480;6.158;2022-12-18T16:20:11;9.82;;;4.03;;
52868;SDS011;39100;53.480;6.158;2022-12-18T16:22:41;7.68;;;3.60;;
52868;SDS011;39100;53.480;6.158;2022-12-18T16:25:15;10.75;;;4.68;;
52868;SDS011;39100;53.480;6.158;2022-12-18T16:27:48;9.32;;;4.07;;
52868;SDS011;39100;53.480;6.158;2022-12-18T16:30:15;7.82;;;4.32;;
52868;SDS011;39100;53.480;6.158;2022-12-18T16:32:42;11.70;;;4.65;;
52868;SDS011;39100;53.480;6.158;2022-12-18T16:35:09;10.60;;;4.50;;
52868;SDS011;39100;53.480;6.158;2022-12-18T16:37:36;9.55;;;5.07;;